Bluefin — WDE9397 — position and weather

sailwx.info

Track history (hours):
 
Tides and Currents Weather Stations Pressure Air Temp Water Temp Dewpoint Dewpoint Depression Visibility Wind Speed Wind Dir Waves Ship Positions

Bluefin

Owner: Penn Maritime Inc., SEATTLE, WA. More information available from US FCC via Universal Licensing System and Coast Guard Vessel Documentation Center.

Last reported at 2016-Apr-24 06:32 UTC. Time now 2016-Jul-25 20:03 UTC.
Position N 32°10' W 080°18'.
Warning: this ship's position is months out of date.

Date/timePositionNaut miles runAvg speedWind from/ knotsBaromVisibWave heightAir tempDewpointWater temp
2016-Apr-24 06:32N 32°10' W 080°18'  
2016-Apr-21 19:33N 38°58' W 075°07'1111.0
2016-Apr-21 18:33N 39°08' W 075°14'1111.2
2016-Apr-21 17:33N 39°17' W 075°22'1110.0
2016-Apr-21 16:27N 39°25' W 075°31'7 7.9
2016-Apr-21 15:33N 39°32' W 075°33'7 6.7
2016-Apr-21 14:33N 39°39' W 075°33'8 8.0
2016-Apr-21 13:33N 39°46' W 075°28'9 9.3
2016-Apr-21 12:34N 39°51' W 075°18'3 3.0
2016-Apr-21 11:30N 39°51' W 075°14'0 0.0
2016-Apr-21 10:33N 39°51' W 075°14'0 0.0
2016-Apr-21 09:33N 39°51' W 075°14'0 0.0
2016-Apr-21 08:33N 39°51' W 075°14'0 0.0
2016-Apr-21 07:33N 39°51' W 075°14'0 0.0
2016-Apr-21 06:33N 39°51' W 075°14'0 0.0
2016-Apr-21 05:33N 39°51' W 075°14'0 0.0
2016-Apr-21 04:33N 39°51' W 075°14'0 0.0
2016-Apr-21 03:33N 39°51' W 075°14'0 0.0
2016-Apr-21 02:33N 39°51' W 075°14'0 0.0
2016-Apr-21 01:33N 39°51' W 075°14'0 0.0
2016-Apr-21 00:33N 39°51' W 075°14'0 0.0
2016-Apr-20 23:33N 39°51' W 075°14'0 0.0
2016-Apr-20 22:33N 39°51' W 075°14'0 0.0
2016-Apr-20 21:33N 39°51' W 075°14'0 0.0
2016-Apr-20 20:33N 39°51' W 075°14'3 2.9
2016-Apr-20 19:33N 39°53' W 075°11'0 0.0
2016-Apr-20 18:33N 39°53' W 075°11'0 0.1
2016-Apr-20 17:33N 39°53' W 075°11'0 0.0
2016-Apr-20 16:34N 39°53' W 075°11'3 2.9
2016-Apr-20 15:33N 39°51' W 075°14'0 0.0
2016-Apr-20 14:34N 39°51' W 075°14'1 0.8
2016-Apr-20 13:33N 39°51' W 075°15'1111.3
2016-Apr-20 12:33N 39°46' W 075°28'4 3.9
2016-Apr-20 11:31N 39°43' W 075°31'0 0.0
2016-Apr-20 10:31N 39°43' W 075°31'0 0.0
2016-Apr-20 09:31N 39°43' W 075°31'0 0.0
2016-Apr-20 08:34N 39°43' W 075°31'0 0.0
2016-Apr-20 07:34N 39°43' W 075°31'0 0.0
2016-Apr-20 06:34N 39°43' W 075°31'0 0.0
2016-Apr-20 05:33N 39°43' W 075°31'0 0.0
2016-Apr-20 04:34N 39°43' W 075°31'0 0.0
2016-Apr-20 03:33N 39°43' W 075°31'0 0.0
2016-Apr-20 02:33N 39°43' W 075°31'0 0.0
2016-Apr-20 01:34N 39°43' W 075°31'0 0.0
2016-Apr-20 00:34N 39°43' W 075°31'0 0.0
2016-Apr-19 23:34N 39°43' W 075°31'0 0.0
2016-Apr-19 22:33N 39°43' W 075°31'0 0.0
2016-Apr-19 21:33N 39°43' W 075°31'0 0.0
2016-Apr-19 20:33N 39°43' W 075°31'0 0.0
2016-Apr-19 19:33N 39°43' W 075°31'0 0.0
2016-Apr-19 18:32N 39°43' W 075°31'3 2.9
2016-Apr-19 17:34N 39°45' W 075°29'4 4.2
2016-Apr-19 16:32N 39°48' W 075°25'0 0.0
2016-Apr-19 15:32N 39°48' W 075°25'0 0.0
2016-Apr-19 14:32N 39°48' W 075°25'0 0.0
2016-Apr-19 13:32N 39°48' W 075°25'0 0.0
2016-Apr-19 12:32N 39°48' W 075°25'0 0.1
2016-Apr-19 11:29N 39°48' W 075°25'0 0.0
2016-Apr-19 10:29N 39°48' W 075°25'0 0.0
2016-Apr-19 09:29N 39°48' W 075°25'0 0.0
2016-Apr-19 08:23N 39°48' W 075°25'0 0.0
2016-Apr-19 07:32N 39°48' W 075°25'0 0.3
2016-Apr-19 06:33N 39°48' W 075°25'1 0.6
2016-Apr-19 05:32N 39°49' W 075°24'0 0.0
2016-Apr-19 04:32N 39°49' W 075°24'0 0.0
2016-Apr-19 03:32N 39°49' W 075°24'0 0.0
2016-Apr-19 02:32N 39°49' W 075°24'0 0.0
2016-Apr-19 01:32N 39°49' W 075°24'0 0.0
2016-Apr-19 00:32N 39°49' W 075°24'0 0.0
2016-Apr-18 23:32N 39°49' W 075°24'0 0.0
2016-Apr-18 22:32N 39°49' W 075°24'0 0.0
2016-Apr-18 21:32N 39°49' W 075°24'0 0.0
2016-Apr-18 20:32N 39°49' W 075°24'0 0.0
2016-Apr-18 19:32N 39°49' W 075°24'0 0.0
2016-Apr-18 18:32N 39°49' W 075°24'0 0.0
2016-Apr-18 17:32N 39°49' W 075°24'0 0.0
2016-Apr-18 16:32N 39°49' W 075°24'0 0.0
2016-Apr-18 15:32N 39°49' W 075°24'0 0.0
2016-Apr-18 14:32N 39°49' W 075°24'0 0.0
2016-Apr-18 13:33N 39°49' W 075°24'0 0.0
2016-Apr-18 12:33N 39°49' W 075°24'1 0.8
2016-Apr-18 11:28N 39°48' W 075°25'0 0.1
2016-Apr-18 10:31N 39°48' W 075°25'0 0.0
2016-Apr-18 09:31N 39°48' W 075°25'0 0.0
2016-Apr-18 08:31N 39°48' W 075°25'0 0.0
2016-Apr-18 07:31N 39°48' W 075°25'0 0.0
2016-Apr-18 06:31N 39°48' W 075°25'0 0.0
2016-Apr-18 05:31N 39°48' W 075°25'0 0.1
2016-Apr-18 04:31N 39°48' W 075°25'0 0.0
2016-Apr-18 03:28N 39°48' W 075°25'0 0.0
2016-Apr-18 02:31N 39°48' W 075°25'0 0.0
2016-Apr-18 01:31N 39°48' W 075°25'0 0.0
2016-Apr-18 00:34N 39°48' W 075°25'0 0.0
2016-Apr-17 23:31N 39°48' W 075°25'0 0.1
2016-Apr-17 22:31N 39°48' W 075°25'0 0.1
2016-Apr-17 21:31N 39°48' W 075°25'0 0.0
2016-Apr-17 20:31N 39°48' W 075°25'0 0.0
2016-Apr-17 19:31N 39°48' W 075°25'0 0.0
2016-Apr-17 18:31N 39°48' W 075°25'0 0.0
2016-Apr-17 17:34N 39°48' W 075°25'0 0.0
2016-Apr-17 16:31N 39°48' W 075°25'0 0.1
2016-Apr-17 15:31N 39°48' W 075°25'0 0.1
2016-Apr-17 14:30N 39°48' W 075°25'0 0.0
2016-Apr-17 13:31N 39°48' W 075°25'0 0.0
2016-Apr-17 12:31N 39°48' W 075°25'0 0.0
2016-Apr-17 11:30N 39°48' W 075°25'0 0.0
2016-Apr-17 10:33N 39°48' W 075°25'0 0.1
2016-Apr-17 09:31N 39°48' W 075°25'0 0.1
2016-Apr-17 08:31N 39°48' W 075°25'0 0.0
2016-Apr-17 07:31N 39°48' W 075°25'0 0.0
2016-Apr-17 06:28N 39°48' W 075°25'2 2.6
2016-Apr-17 05:33N 39°47' W 075°28'5 4.7
2016-Apr-17 04:33N 39°43' W 075°31'0 0.0
2016-Apr-17 03:33N 39°43' W 075°31'0 0.0
2016-Apr-17 02:33N 39°43' W 075°31'0 0.0
2016-Apr-17 01:33N 39°43' W 075°31'0 0.0
2016-Apr-17 00:33N 39°43' W 075°31'0 0.0
2016-Apr-16 23:33N 39°43' W 075°31'0 0.0
2016-Apr-16 22:33N 39°43' W 075°31'0 0.0
2016-Apr-16 21:33N 39°43' W 075°31'0 0.0
2016-Apr-16 20:33N 39°43' W 075°31'0 0.0
2016-Apr-16 19:33N 39°43' W 075°31'0 0.0
2016-Apr-16 18:33N 39°43' W 075°31'0 0.0
2016-Apr-16 17:33N 39°43' W 075°31'0 0.0
2016-Apr-16 16:33N 39°43' W 075°31'0 0.0
2016-Apr-16 15:33N 39°43' W 075°31'0 0.0
2016-Apr-16 14:33N 39°43' W 075°31'0 0.0
2016-Apr-16 13:32N 39°43' W 075°31'2 2.3
2016-Apr-16 12:33N 39°45' W 075°29'6 5.8
2016-Apr-16 11:34N 39°49' W 075°24'0 0.4
2016-Apr-16 10:31N 39°49' W 075°24'0 0.0
2016-Apr-16 09:31N 39°49' W 075°24'0 0.0
2016-Apr-16 08:28N 39°49' W 075°24'0 0.0
2016-Apr-16 07:31N 39°49' W 075°24'0 0.0
2016-Apr-16 06:31N 39°49' W 075°24'0 0.0
2016-Apr-16 05:31N 39°49' W 075°24'0 0.0
2016-Apr-16 04:31N 39°49' W 075°24'0 0.0
2016-Apr-16 03:31N 39°49' W 075°24'0 0.0
2016-Apr-16 02:31N 39°49' W 075°24'0 0.0
2016-Apr-16 01:31N 39°49' W 075°24'0 0.0
2016-Apr-16 00:28N 39°49' W 075°24'0 0.0
2016-Apr-15 23:31N 39°49' W 075°24'0 0.0
2016-Apr-15 22:31N 39°49' W 075°24'0 0.0
2016-Apr-15 21:31N 39°49' W 075°24'0 0.0
2016-Apr-15 20:31N 39°49' W 075°24'0 0.0
2016-Apr-15 19:31N 39°49' W 075°24'0 0.0
2016-Apr-15 18:28N 39°49' W 075°24'0 0.0
2016-Apr-15 17:31N 39°49' W 075°24'0 0.0
2016-Apr-15 16:31N 39°49' W 075°24'0 0.0
2016-Apr-15 15:31N 39°49' W 075°24'0 0.0
2016-Apr-15 14:31N 39°49' W 075°24'0 0.0
2016-Apr-15 13:28N 39°49' W 075°24'0 0.0
2016-Apr-15 12:31N 39°49' W 075°24'0 0.0
2016-Apr-15 11:31N 39°49' W 075°24'0 0.0
2016-Apr-15 10:33N 39°49' W 075°24'0 0.0
2016-Apr-15 09:33N 39°49' W 075°24'0 0.0
2016-Apr-15 08:33N 39°49' W 075°24'0 0.0
2016-Apr-15 07:33N 39°49' W 075°24'0 0.0
2016-Apr-15 06:33N 39°49' W 075°24'0 0.0
2016-Apr-15 05:33N 39°49' W 075°24'0 0.2
2016-Apr-15 04:33N 39°49' W 075°24'9 8.5
2016-Apr-15 03:33N 39°52' W 075°13'0 0.0
2016-Apr-15 02:33N 39°52' W 075°13'4 4.3
2016-Apr-15 01:34N 39°53' W 075°08'3 2.4
2016-Apr-15 00:31N 39°56' W 075°08'0 0.0
2016-Apr-14 23:31N 39°56' W 075°08'0 0.0
2016-Apr-14 22:31N 39°56' W 075°08'0 0.0
2016-Apr-14 21:31N 39°56' W 075°08'0 0.1
2016-Apr-14 20:31N 39°56' W 075°08'0 0.1
2016-Apr-14 19:32N 39°56' W 075°08'0 0.0
2016-Apr-14 18:32N 39°56' W 075°08'0 0.0
2016-Apr-14 17:32N 39°56' W 075°08'0 0.0
2016-Apr-14 16:32N 39°56' W 075°08'0 0.2
2016-Apr-14 15:32N 39°56' W 075°08'0 0.0
2016-Apr-14 14:32N 39°56' W 075°08'0 0.0
2016-Apr-14 13:32N 39°56' W 075°08'0 0.0
2016-Apr-14 12:32N 39°56' W 075°08'0 0.2
2016-Apr-14 11:31N 39°56' W 075°08'0 0.0
2016-Apr-14 10:31N 39°56' W 075°08'0 0.0
2016-Apr-14 09:31N 39°56' W 075°08'0 0.0
2016-Apr-14 08:31N 39°56' W 075°08'0 0.1
2016-Apr-14 07:31N 39°56' W 075°08'  
Track history (hours):
 
Tides and Currents Weather Stations Pressure Air Temp Water Temp Dewpoint Dewpoint Depression Visibility Wind Speed Wind Dir Waves Ship Positions

Bluefin

Owner: Penn Maritime Inc., SEATTLE, WA. More information available from US FCC via Universal Licensing System and Coast Guard Vessel Documentation Center.

Last reported at 2016-Apr-24 06:32 UTC. Time now 2016-Jul-25 20:03 UTC.
Position N 32°10' W 080°18'.
Warning: this ship's position is months out of date.

Date/timePositionNaut miles runAvg speedWind from/ knotsBaromVisibWave heightAir tempDewpointWater temp
2016-Apr-24 06:32N 32°10' W 080°18'  
2016-Apr-21 19:33N 38°58' W 075°07'1111.0
2016-Apr-21 18:33N 39°08' W 075°14'1111.2
2016-Apr-21 17:33N 39°17' W 075°22'1110.0
2016-Apr-21 16:27N 39°25' W 075°31'7 7.9
2016-Apr-21 15:33N 39°32' W 075°33'7 6.7
2016-Apr-21 14:33N 39°39' W 075°33'8 8.0
2016-Apr-21 13:33N 39°46' W 075°28'9 9.3
2016-Apr-21 12:34N 39°51' W 075°18'3 3.0
2016-Apr-21 11:30N 39°51' W 075°14'0 0.0
2016-Apr-21 10:33N 39°51' W 075°14'0 0.0
2016-Apr-21 09:33N 39°51' W 075°14'0 0.0
2016-Apr-21 08:33N 39°51' W 075°14'0 0.0
2016-Apr-21 07:33N 39°51' W 075°14'0 0.0
2016-Apr-21 06:33N 39°51' W 075°14'0 0.0
2016-Apr-21 05:33N 39°51' W 075°14'0 0.0
2016-Apr-21 04:33N 39°51' W 075°14'0 0.0
2016-Apr-21 03:33N 39°51' W 075°14'0 0.0
2016-Apr-21 02:33N 39°51' W 075°14'0 0.0
2016-Apr-21 01:33N 39°51' W 075°14'0 0.0
2016-Apr-21 00:33N 39°51' W 075°14'0 0.0
2016-Apr-20 23:33N 39°51' W 075°14'0 0.0
2016-Apr-20 22:33N 39°51' W 075°14'0 0.0
2016-Apr-20 21:33N 39°51' W 075°14'0 0.0
2016-Apr-20 20:33N 39°51' W 075°14'3 2.9
2016-Apr-20 19:33N 39°53' W 075°11'0 0.0
2016-Apr-20 18:33N 39°53' W 075°11'0 0.1
2016-Apr-20 17:33N 39°53' W 075°11'0 0.0
2016-Apr-20 16:34N 39°53' W 075°11'3 2.9
2016-Apr-20 15:33N 39°51' W 075°14'0 0.0
2016-Apr-20 14:34N 39°51' W 075°14'1 0.8
2016-Apr-20 13:33N 39°51' W 075°15'1111.3
2016-Apr-20 12:33N 39°46' W 075°28'4 3.9
2016-Apr-20 11:31N 39°43' W 075°31'0 0.0
2016-Apr-20 10:31N 39°43' W 075°31'0 0.0
2016-Apr-20 09:31N 39°43' W 075°31'0 0.0
2016-Apr-20 08:34N 39°43' W 075°31'0 0.0
2016-Apr-20 07:34N 39°43' W 075°31'0 0.0
2016-Apr-20 06:34N 39°43' W 075°31'0 0.0
2016-Apr-20 05:33N 39°43' W 075°31'0 0.0
2016-Apr-20 04:34N 39°43' W 075°31'0 0.0
2016-Apr-20 03:33N 39°43' W 075°31'0 0.0
2016-Apr-20 02:33N 39°43' W 075°31'0 0.0
2016-Apr-20 01:34N 39°43' W 075°31'0 0.0
2016-Apr-20 00:34N 39°43' W 075°31'0 0.0
2016-Apr-19 23:34N 39°43' W 075°31'0 0.0
2016-Apr-19 22:33N 39°43' W 075°31'0 0.0
2016-Apr-19 21:33N 39°43' W 075°31'0 0.0
2016-Apr-19 20:33N 39°43' W 075°31'0 0.0
2016-Apr-19 19:33N 39°43' W 075°31'0 0.0
2016-Apr-19 18:32N 39°43' W 075°31'3 2.9
2016-Apr-19 17:34N 39°45' W 075°29'4 4.2
2016-Apr-19 16:32N 39°48' W 075°25'0 0.0
2016-Apr-19 15:32N 39°48' W 075°25'0 0.0
2016-Apr-19 14:32N 39°48' W 075°25'0 0.0
2016-Apr-19 13:32N 39°48' W 075°25'0 0.0
2016-Apr-19 12:32N 39°48' W 075°25'0 0.1
2016-Apr-19 11:29N 39°48' W 075°25'0 0.0
2016-Apr-19 10:29N 39°48' W 075°25'0 0.0
2016-Apr-19 09:29N 39°48' W 075°25'0 0.0
2016-Apr-19 08:23N 39°48' W 075°25'0 0.0
2016-Apr-19 07:32N 39°48' W 075°25'0 0.3
2016-Apr-19 06:33N 39°48' W 075°25'1 0.6
2016-Apr-19 05:32N 39°49' W 075°24'0 0.0
2016-Apr-19 04:32N 39°49' W 075°24'0 0.0
2016-Apr-19 03:32N 39°49' W 075°24'0 0.0
2016-Apr-19 02:32N 39°49' W 075°24'0 0.0
2016-Apr-19 01:32N 39°49' W 075°24'0 0.0
2016-Apr-19 00:32N 39°49' W 075°24'0 0.0
2016-Apr-18 23:32N 39°49' W 075°24'0 0.0
2016-Apr-18 22:32N 39°49' W 075°24'0 0.0
2016-Apr-18 21:32N 39°49' W 075°24'0 0.0
2016-Apr-18 20:32N 39°49' W 075°24'0 0.0
2016-Apr-18 19:32N 39°49' W 075°24'0 0.0
2016-Apr-18 18:32N 39°49' W 075°24'0 0.0
2016-Apr-18 17:32N 39°49' W 075°24'0 0.0
2016-Apr-18 16:32N 39°49' W 075°24'0 0.0
2016-Apr-18 15:32N 39°49' W 075°24'0 0.0
2016-Apr-18 14:32N 39°49' W 075°24'0 0.0
2016-Apr-18 13:33N 39°49' W 075°24'0 0.0
2016-Apr-18 12:33N 39°49' W 075°24'1 0.8
2016-Apr-18 11:28N 39°48' W 075°25'0 0.1
2016-Apr-18 10:31N 39°48' W 075°25'0 0.0
2016-Apr-18 09:31N 39°48' W 075°25'0 0.0
2016-Apr-18 08:31N 39°48' W 075°25'0 0.0
2016-Apr-18 07:31N 39°48' W 075°25'0 0.0
2016-Apr-18 06:31N 39°48' W 075°25'0 0.0
2016-Apr-18 05:31N 39°48' W 075°25'0 0.1
2016-Apr-18 04:31N 39°48' W 075°25'0 0.0
2016-Apr-18 03:28N 39°48' W 075°25'0 0.0
2016-Apr-18 02:31N 39°48' W 075°25'0 0.0
2016-Apr-18 01:31N 39°48' W 075°25'0 0.0
2016-Apr-18 00:34N 39°48' W 075°25'0 0.0
2016-Apr-17 23:31N 39°48' W 075°25'0 0.1
2016-Apr-17 22:31N 39°48' W 075°25'0 0.1
2016-Apr-17 21:31N 39°48' W 075°25'0 0.0
2016-Apr-17 20:31N 39°48' W 075°25'0 0.0
2016-Apr-17 19:31N 39°48' W 075°25'0 0.0
2016-Apr-17 18:31N 39°48' W 075°25'0 0.0
2016-Apr-17 17:34N 39°48' W 075°25'0 0.0
2016-Apr-17 16:31N 39°48' W 075°25'0 0.1
2016-Apr-17 15:31N 39°48' W 075°25'0 0.1
2016-Apr-17 14:30N 39°48' W 075°25'0 0.0
2016-Apr-17 13:31N 39°48' W 075°25'0 0.0
2016-Apr-17 12:31N 39°48' W 075°25'0 0.0
2016-Apr-17 11:30N 39°48' W 075°25'0 0.0
2016-Apr-17 10:33N 39°48' W 075°25'0 0.1
2016-Apr-17 09:31N 39°48' W 075°25'0 0.1
2016-Apr-17 08:31N 39°48' W 075°25'0 0.0
2016-Apr-17 07:31N 39°48' W 075°25'0 0.0
2016-Apr-17 06:28N 39°48' W 075°25'2 2.6
2016-Apr-17 05:33N 39°47' W 075°28'5 4.7
2016-Apr-17 04:33N 39°43' W 075°31'0 0.0
2016-Apr-17 03:33N 39°43' W 075°31'0 0.0
2016-Apr-17 02:33N 39°43' W 075°31'0 0.0
2016-Apr-17 01:33N 39°43' W 075°31'0 0.0
2016-Apr-17 00:33N 39°43' W 075°31'0 0.0
2016-Apr-16 23:33N 39°43' W 075°31'0 0.0
2016-Apr-16 22:33N 39°43' W 075°31'0 0.0
2016-Apr-16 21:33N 39°43' W 075°31'0 0.0
2016-Apr-16 20:33N 39°43' W 075°31'0 0.0
2016-Apr-16 19:33N 39°43' W 075°31'0 0.0
2016-Apr-16 18:33N 39°43' W 075°31'0 0.0
2016-Apr-16 17:33N 39°43' W 075°31'0 0.0
2016-Apr-16 16:33N 39°43' W 075°31'0 0.0
2016-Apr-16 15:33N 39°43' W 075°31'0 0.0
2016-Apr-16 14:33N 39°43' W 075°31'0 0.0
2016-Apr-16 13:32N 39°43' W 075°31'2 2.3
2016-Apr-16 12:33N 39°45' W 075°29'6 5.8
2016-Apr-16 11:34N 39°49' W 075°24'0 0.4
2016-Apr-16 10:31N 39°49' W 075°24'0 0.0
2016-Apr-16 09:31N 39°49' W 075°24'0 0.0
2016-Apr-16 08:28N 39°49' W 075°24'0 0.0
2016-Apr-16 07:31N 39°49' W 075°24'0 0.0
2016-Apr-16 06:31N 39°49' W 075°24'0 0.0
2016-Apr-16 05:31N 39°49' W 075°24'0 0.0
2016-Apr-16 04:31N 39°49' W 075°24'0 0.0
2016-Apr-16 03:31N 39°49' W 075°24'0 0.0
2016-Apr-16 02:31N 39°49' W 075°24'0 0.0
2016-Apr-16 01:31N 39°49' W 075°24'0 0.0
2016-Apr-16 00:28N 39°49' W 075°24'0 0.0
2016-Apr-15 23:31N 39°49' W 075°24'0 0.0
2016-Apr-15 22:31N 39°49' W 075°24'0 0.0
2016-Apr-15 21:31N 39°49' W 075°24'0 0.0
2016-Apr-15 20:31N 39°49' W 075°24'0 0.0
2016-Apr-15 19:31N 39°49' W 075°24'0 0.0
2016-Apr-15 18:28N 39°49' W 075°24'0 0.0
2016-Apr-15 17:31N 39°49' W 075°24'0 0.0
2016-Apr-15 16:31N 39°49' W 075°24'0 0.0
2016-Apr-15 15:31N 39°49' W 075°24'0 0.0
2016-Apr-15 14:31N 39°49' W 075°24'0 0.0
2016-Apr-15 13:28N 39°49' W 075°24'0 0.0
2016-Apr-15 12:31N 39°49' W 075°24'0 0.0
2016-Apr-15 11:31N 39°49' W 075°24'0 0.0
2016-Apr-15 10:33N 39°49' W 075°24'0 0.0
2016-Apr-15 09:33N 39°49' W 075°24'0 0.0
2016-Apr-15 08:33N 39°49' W 075°24'0 0.0
2016-Apr-15 07:33N 39°49' W 075°24'0 0.0
2016-Apr-15 06:33N 39°49' W 075°24'0 0.0
2016-Apr-15 05:33N 39°49' W 075°24'0 0.2
2016-Apr-15 04:33N 39°49' W 075°24'9 8.5
2016-Apr-15 03:33N 39°52' W 075°13'0 0.0
2016-Apr-15 02:33N 39°52' W 075°13'4 4.3
2016-Apr-15 01:34N 39°53' W 075°08'3 2.4
2016-Apr-15 00:31N 39°56' W 075°08'0 0.0
2016-Apr-14 23:31N 39°56' W 075°08'0 0.0
2016-Apr-14 22:31N 39°56' W 075°08'0 0.0
2016-Apr-14 21:31N 39°56' W 075°08'0 0.1
2016-Apr-14 20:31N 39°56' W 075°08'0 0.1
2016-Apr-14 19:32N 39°56' W 075°08'0 0.0
2016-Apr-14 18:32N 39°56' W 075°08'0 0.0
2016-Apr-14 17:32N 39°56' W 075°08'0 0.0
2016-Apr-14 16:32N 39°56' W 075°08'0 0.2
2016-Apr-14 15:32N 39°56' W 075°08'0 0.0
2016-Apr-14 14:32N 39°56' W 075°08'0 0.0
2016-Apr-14 13:32N 39°56' W 075°08'0 0.0
2016-Apr-14 12:32N 39°56' W 075°08'0 0.2
2016-Apr-14 11:31N 39°56' W 075°08'0 0.0
2016-Apr-14 10:31N 39°56' W 075°08'0 0.0
2016-Apr-14 09:31N 39°56' W 075°08'0 0.0
2016-Apr-14 08:31N 39°56' W 075°08'0 0.1
2016-Apr-14 07:31N 39°56' W 075°08'  

Dump ship's entire track history